Terminal Aerodrome Forecast
Issued by NWS Wilmington, OH

Current Version | Previous Version | Graphics & Text | Print | Product List | Glossary On
Versions: 1 2 3 4 5 6 7 8 9 10 11 12 13 14 15 16 17 18 19 20 21 22 23 24 25 26 27 28 29 30 31 32
000
FTUS41 KILN 240800 AAA
TAFCVG
TAF AMD
KCVG 240823Z 2408/2512 21015G25KT P6SM VCSH SCT008 OVC015
      TEMPO 2408/2411 SCT018 OVC025
     FM241100 19018G32KT P6SM VCSH SCT012 OVC022
      TEMPO 2415/2417 24024G38KT 5SM -SHRA BR OVC015
     FM241700 24018G28KT P6SM OVC025
     FM250000 24012G22KT P6SM BKN030
     FM250600 25011KT P6SM SCT030=

USA.gov is the U.S. government's official web portal to all federal, state and local government web resources and services.